createdAt,value
2022-08-28T00:01:30.573Z,102060.13
2022-08-28T00:03:59.560Z,102059.03
2022-08-28T00:06:26.416Z,102061.22
2022-08-28T00:08:57.925Z,102060.09
2022-08-28T00:11:29.476Z,102054.38
2022-08-28T00:14:07.353Z,102050.81
2022-08-28T00:16:42.148Z,102059.56
2022-08-28T00:19:18.724Z,102057.66
2022-08-28T00:21:45.801Z,102059.03
2022-08-28T00:24:14.480Z,102059.56
2022-08-28T00:27:24.489Z,102060.63
2022-08-28T00:29:51.061Z,102062.81
2022-08-28T00:32:17.576Z,102065.00
2022-08-28T00:34:50.533Z,102066.91
2022-08-28T00:37:18.284Z,102067.72
2022-08-28T00:39:44.842Z,102063.63
2022-08-28T00:42:11.320Z,102056.78
2022-08-28T00:44:38.369Z,102060.59
2022-08-28T00:47:18.293Z,102064.13
2022-08-28T00:49:58.311Z,102062.47
2022-08-28T00:52:26.949Z,102063.28
2022-08-28T00:55:18.959Z,102060.00
2022-08-28T00:57:52.431Z,102066.00
2022-08-28T01:00:25.368Z,102061.63
2022-08-28T01:02:53.248Z,102065.47
2022-08-28T01:05:29.973Z,102066.00
2022-08-28T01:07:58.847Z,102068.72
2022-08-28T01:10:29.172Z,102055.59
2022-08-28T01:12:57.413Z,102063.00
2022-08-28T01:15:35.412Z,102064.88
2022-08-28T01:18:08.244Z,102059.97
2022-08-28T01:20:37.774Z,102067.31
2022-08-28T01:23:51.586Z,102062.09
2022-08-28T01:26:22.269Z,102064.84
2022-08-28T01:29:31.555Z,102064.56
2022-08-28T01:31:59.592Z,102071.63
2022-08-28T01:34:26.479Z,102069.13
2022-08-28T01:37:03.376Z,102079.25
2022-08-28T01:39:30.368Z,102072.94
2022-08-28T01:41:59.501Z,102072.94
2022-08-28T01:44:28.111Z,102073.50
2022-08-28T01:47:13.638Z,102078.66
2022-08-28T01:49:40.317Z,102066.63
2022-08-28T01:52:09.954Z,102066.34
2022-08-28T01:55:21.570Z,102056.47
2022-08-28T01:57:52.997Z,102063.25
2022-08-28T02:00:25.772Z,102064.34
2022-08-28T02:02:52.260Z,102067.09
2022-08-28T02:05:52.871Z,102071.72
2022-08-28T02:08:20.617Z,102071.41
2022-08-28T02:10:47.973Z,102068.97
2022-08-28T02:13:22.618Z,102073.59
2022-08-28T02:15:52.424Z,102074.09
2022-08-28T02:18:18.981Z,102083.13
2022-08-28T02:20:45.518Z,102071.66
2022-08-28T02:23:12.830Z,102077.31
2022-08-28T02:25:43.536Z,102078.69
2022-08-28T02:28:10.161Z,102080.84
2022-08-28T02:30:40.213Z,102086.81
2022-08-28T02:33:35.400Z,102081.38
2022-08-28T02:36:01.844Z,102079.44
2022-08-28T02:38:29.587Z,102074.22
2022-08-28T02:40:57.920Z,102073.66
2022-08-28T02:43:24.340Z,102081.84
2022-08-28T02:45:50.848Z,102090.03
2022-08-28T02:48:48.381Z,102078.56
2022-08-28T02:51:15.006Z,102082.38
2022-08-28T02:53:42.579Z,102083.44
2022-08-28T02:56:13.325Z,102074.72
2022-08-28T02:58:42.421Z,102080.16
2022-08-28T03:01:34.349Z,102077.38
2022-08-28T03:04:15.374Z,102079.59
2022-08-28T03:06:47.981Z,102083.13
2022-08-28T03:09:14.397Z,102088.00
2022-08-28T03:11:41.408Z,102092.91
2022-08-28T03:14:07.883Z,102086.03
2022-08-28T03:16:34.582Z,102093.66
2022-08-28T03:19:04.281Z,102092.00
2022-08-28T03:21:30.715Z,102095.53
2022-08-28T03:24:03.899Z,102089.75
2022-08-28T03:26:30.838Z,102088.94
2022-08-28T03:29:16.024Z,102091.88
2022-08-28T03:31:45.448Z,102090.22
2022-08-28T03:34:11.868Z,102094.31
2022-08-28T03:36:44.345Z,102096.72
2022-08-28T03:39:21.888Z,102099.38
2022-08-28T03:41:48.470Z,102096.41
2022-08-28T03:44:16.666Z,102102.69
2022-08-28T03:46:55.375Z,102093.94
2022-08-28T03:49:21.900Z,102099.38
2022-08-28T03:51:49.448Z,102096.94
2022-08-28T03:54:34.220Z,102102.09
2022-08-28T03:57:21.235Z,102107.53
2022-08-28T03:59:49.717Z,102102.59
2022-08-28T04:02:21.561Z,102105.31
2022-08-28T04:04:49.393Z,102111.84
2022-08-28T04:07:19.921Z,102112.94
2022-08-28T04:09:51.432Z,102124.91
2022-08-28T04:12:18.671Z,102121.91
2022-08-28T04:14:45.088Z,102119.44
2022-08-28T04:17:16.468Z,102122.13
2022-08-28T04:19:46.995Z,102126.44
2022-08-28T04:22:23.762Z,102129.66
2022-08-28T04:24:50.331Z,102120.66
2022-08-28T04:27:17.755Z,102129.09
2022-08-28T04:29:44.177Z,102135.63
2022-08-28T04:32:10.593Z,102124.16
2022-08-28T04:35:27.442Z,102127.69
2022-08-28T04:38:23.087Z,102124.66
2022-08-28T04:40:55.894Z,102123.00
2022-08-28T04:43:43.101Z,102139.03
2022-08-28T04:46:47.304Z,102135.50
2022-08-28T04:49:27.807Z,102134.91
2022-08-28T04:51:57.217Z,102143.66
2022-08-28T04:54:23.603Z,102142.81
2022-08-28T04:57:08.857Z,102142.25
2022-08-28T04:59:41.892Z,102146.63
2022-08-28T05:02:14.669Z,102143.66
2022-08-28T05:05:01.252Z,102148.25
2022-08-28T05:07:38.750Z,102149.91
2022-08-28T05:10:21.089Z,102164.38
2022-08-28T05:12:47.508Z,102160.56
2022-08-28T05:15:17.176Z,102163.28
2022-08-28T05:17:59.538Z,102157.34
2022-08-28T05:20:39.392Z,102148.09
2022-08-28T05:23:19.857Z,102155.75
2022-08-28T05:25:48.749Z,102158.53
2022-08-28T05:28:17.640Z,102154.75
2022-08-28T05:30:44.956Z,102153.66
2022-08-28T05:33:13.271Z,102157.19
2022-08-28T05:35:44.112Z,102161.91
2022-08-28T05:38:16.667Z,102164.19
2022-08-28T05:40:49.581Z,102161.47
2022-08-28T05:43:17.453Z,102159.91
2022-08-28T05:45:46.153Z,102165.97
2022-08-28T05:48:19.733Z,102162.25
2022-08-28T05:50:47.300Z,102167.50
2022-08-28T05:53:14.017Z,102172.19
2022-08-28T05:55:40.675Z,102166.78
2022-08-28T05:58:31.272Z,102172.84
2022-08-28T06:01:15.199Z,102167.50
2022-08-28T06:03:59.219Z,102162.66
2022-08-28T06:06:28.344Z,102178.78
2022-08-28T06:09:04.821Z,102180.25
2022-08-28T06:11:31.391Z,102177.84
2022-08-28T06:14:01.834Z,102177.13
2022-08-28T06:16:30.962Z,102177.72
2022-08-28T06:19:01.720Z,102176.13
2022-08-28T06:21:29.503Z,102176.44
2022-08-28T06:24:00.296Z,102188.50
2022-08-28T06:26:27.215Z,102185.53
2022-08-28T06:28:53.895Z,102182.31
2022-08-28T06:31:29.760Z,102183.50
2022-08-28T06:34:00.283Z,102185.16
2022-08-28T06:36:34.378Z,102193.94
2022-08-28T06:39:09.523Z,102186.91
2022-08-28T06:41:40.979Z,102188.59
2022-08-28T06:44:08.860Z,102191.94
2022-08-28T06:46:35.675Z,102184.56
2022-08-28T06:49:30.679Z,102188.97
2022-08-28T06:51:57.129Z,102188.16
2022-08-28T06:54:23.766Z,102195.03
2022-08-28T06:56:53.339Z,102192.88
2022-08-28T06:59:20.337Z,102186.31
2022-08-28T07:01:47.906Z,102190.94
2022-08-28T07:04:14.763Z,102193.69
2022-08-28T07:07:01.668Z,102194.28
2022-08-28T07:09:44.916Z,102198.66
2022-08-28T07:12:17.632Z,102192.63
2022-08-28T07:14:50.179Z,102193.44
2022-08-28T07:17:16.631Z,102193.72
2022-08-28T07:19:50.293Z,102206.31
2022-08-28T07:22:16.702Z,102197.81
2022-08-28T07:24:43.136Z,102201.66
2022-08-28T07:27:18.301Z,102205.22
2022-08-28T07:29:45.415Z,102209.06
2022-08-28T07:32:13.240Z,102209.00
2022-08-28T07:34:41.096Z,102214.78
2022-08-28T07:37:15.402Z,102218.31
2022-08-28T07:39:42.079Z,102219.16
2022-08-28T07:42:41.314Z,102210.63
2022-08-28T07:45:09.478Z,102213.34
2022-08-28T07:47:45.068Z,102208.41
2022-08-28T07:50:11.484Z,102212.78
2022-08-28T07:52:37.921Z,102210.84
2022-08-28T07:55:05.617Z,102218.81
2022-08-28T07:57:32.127Z,102212.19
2022-08-28T07:59:59.483Z,102214.41
2022-08-28T08:02:26.728Z,102212.22
2022-08-28T08:04:53.372Z,102226.47
2022-08-28T08:07:20.464Z,102222.31
2022-08-28T08:09:46.873Z,102226.44
2022-08-28T08:12:14.737Z,102225.03
2022-08-28T08:14:42.815Z,102224.19
2022-08-28T08:17:10.493Z,102230.16
2022-08-28T08:19:37.101Z,102242.72
2022-08-28T08:22:03.514Z,102236.09
2022-08-28T08:24:30.425Z,102237.19
2022-08-28T08:27:00.975Z,102239.91
2022-08-28T08:29:35.480Z,102234.91
2022-08-28T08:32:07.020Z,102233.78
2022-08-28T08:34:36.462Z,102234.88
2022-08-28T08:37:03.057Z,102228.25
2022-08-28T08:39:29.496Z,102229.56
2022-08-28T08:42:28.024Z,102226.47
2022-08-28T08:45:05.252Z,102228.63
2022-08-28T08:47:47.620Z,102226.31
2022-08-28T08:50:41.519Z,102222.91
2022-08-28T08:53:32.725Z,102231.63
2022-08-28T08:56:00.132Z,102220.06
2022-08-28T08:58:42.280Z,102217.31
2022-08-28T09:01:32.485Z,102214.00
2022-08-28T09:04:25.920Z,102219.91
2022-08-28T09:07:00.987Z,102218.78
2022-08-28T09:09:32.863Z,102217.16
2022-08-28T09:12:23.063Z,102216.91
2022-08-28T09:15:04.853Z,102221.13
2022-08-28T09:17:37.543Z,102224.72
2022-08-28T09:20:09.590Z,102221.00
2022-08-28T09:22:37.675Z,102228.63
2022-08-28T09:25:06.040Z,102231.88
2022-08-28T09:27:36.854Z,102226.75
2022-08-28T09:30:10.257Z,102225.44
2022-08-28T09:32:46.752Z,102222.44
2022-08-28T09:35:32.788Z,102223.63
2022-08-28T09:38:23.031Z,102227.88
2022-08-28T09:41:31.508Z,102238.50
2022-08-28T09:43:58.036Z,102225.69
2022-08-28T09:46:29.354Z,102219.59
2022-08-28T09:49:10.689Z,102225.94
2022-08-28T09:51:38.839Z,102229.03
2022-08-28T09:54:22.519Z,102221.91
2022-08-28T09:56:50.321Z,102226.47
2022-08-28T09:59:19.406Z,102217.38
2022-08-28T10:02:35.842Z,102229.28
2022-08-28T10:05:10.496Z,102226.00
2022-08-28T10:07:54.879Z,102227.78
2022-08-28T10:10:36.735Z,102218.75
2022-08-28T10:13:16.015Z,102221.19
2022-08-28T10:16:00.902Z,102220.56
2022-08-28T10:19:05.228Z,102227.03
2022-08-28T10:21:44.640Z,102218.56
2022-08-28T10:24:28.571Z,102221.00
2022-08-28T10:27:25.224Z,102219.69
2022-08-28T10:30:15.304Z,102224.66
2022-08-28T10:33:09.067Z,102217.53
2022-08-28T10:36:33.322Z,102213.78
2022-08-28T10:39:24.632Z,102229.34
2022-08-28T10:42:04.760Z,102232.69
2022-08-28T10:44:53.752Z,102231.88
2022-08-28T10:47:24.179Z,102229.28
2022-08-28T10:50:04.620Z,102224.91
2022-08-28T10:52:41.844Z,102224.66
2022-08-28T10:55:21.871Z,102227.38
2022-08-28T10:57:57.922Z,102230.47
2022-08-28T11:00:27.256Z,102229.34
2022-08-28T11:03:32.701Z,102228.09
2022-08-28T11:06:13.947Z,102227.06
2022-08-28T11:08:40.699Z,102223.19
2022-08-28T11:11:14.929Z,102218.25
2022-08-28T11:13:47.548Z,102211.03
2022-08-28T11:16:33.370Z,102216.13
2022-08-28T11:19:30.469Z,102217.03
2022-08-28T11:22:18.371Z,102225.09
2022-08-28T11:25:26.617Z,102225.94
2022-08-28T11:28:19.774Z,102227.28
2022-08-28T11:30:50.061Z,102227.16
2022-08-28T11:33:34.997Z,102233.31
2022-08-28T11:36:01.956Z,102230.69
2022-08-28T11:38:40.550Z,102223.53
2022-08-28T11:41:22.556Z,102223.88
2022-08-28T11:43:52.420Z,102230.50
2022-08-28T11:46:31.412Z,102225.16
2022-08-28T11:49:06.240Z,102226.75
2022-08-28T11:51:46.084Z,102235.50
2022-08-28T11:54:26.562Z,102231.72
2022-08-28T11:57:06.688Z,102214.94
2022-08-28T12:02:39.173Z,102213.16
2022-08-28T12:05:10.084Z,102225.19
2022-08-28T12:07:43.077Z,102234.97
2022-08-28T12:10:35.680Z,102233.00
2022-08-28T12:13:03.612Z,102221.59
2022-08-28T12:16:04.960Z,102212.94
2022-08-28T12:18:51.411Z,102217.69
2022-08-28T12:21:21.511Z,102232.91
2022-08-28T12:24:09.175Z,102222.56
2022-08-28T12:26:43.564Z,102224.38
2022-08-28T12:29:31.243Z,102220.00
2022-08-28T12:32:12.933Z,102230.31
2022-08-28T12:34:42.415Z,102220.00
2022-08-28T12:37:51.870Z,102222.31
2022-08-28T12:40:37.804Z,102213.75
2022-08-28T12:43:07.709Z,102209.81
2022-08-28T12:45:42.920Z,102215.19
2022-08-28T12:48:31.656Z,102217.66
2022-08-28T12:51:06.368Z,102216.63
2022-08-28T12:53:43.215Z,102213.88
2022-08-28T12:56:15.252Z,102208.28
2022-08-28T12:58:43.563Z,102205.53
2022-08-28T13:01:14.492Z,102191.63
2022-08-28T13:03:53.391Z,102204.09
2022-08-28T13:06:40.135Z,102205.50
2022-08-28T13:09:15.488Z,102204.97
2022-08-28T13:11:47.221Z,102198.53
2022-08-28T13:14:13.653Z,102195.53
2022-08-28T13:16:47.482Z,102193.03
2022-08-28T13:19:33.372Z,102193.16
2022-08-28T13:22:24.452Z,102191.41
2022-08-28T13:24:59.629Z,102196.50
2022-08-28T13:27:26.820Z,102195.19
2022-08-28T13:29:57.395Z,102201.84
2022-08-28T13:32:26.864Z,102198.88
2022-08-28T13:35:13.531Z,102200.66
2022-08-28T13:37:43.717Z,102203.94
2022-08-28T13:40:24.500Z,102204.59
2022-08-28T13:43:02.836Z,102197.88
2022-08-28T13:45:36.378Z,102190.50
2022-08-28T13:48:12.149Z,102193.78
2022-08-28T13:50:40.040Z,102194.69
2022-08-28T13:53:06.608Z,102196.13
2022-08-28T13:55:33.530Z,102201.44
2022-08-28T13:57:59.916Z,102203.06
2022-08-28T14:00:28.187Z,102203.06
2022-08-28T14:03:13.355Z,102197.66
2022-08-28T14:05:39.878Z,102190.09
2022-08-28T14:08:06.299Z,102193.97
2022-08-28T14:10:32.747Z,102198.88
2022-08-28T14:12:59.212Z,102191.63
2022-08-28T14:15:25.704Z,102186.63
2022-08-28T14:17:52.195Z,102179.88
2022-08-28T14:20:18.698Z,102190.19
2022-08-28T14:22:45.149Z,102192.53
2022-08-28T14:25:11.707Z,102194.72
2022-08-28T14:27:38.313Z,102199.91
2022-08-28T14:30:09.244Z,102198.66
2022-08-28T14:32:37.967Z,102194.75
2022-08-28T14:35:05.498Z,102193.56
2022-08-28T14:37:32.377Z,102197.66
2022-08-28T14:39:58.782Z,102185.19
2022-08-28T14:42:26.537Z,102186.63
2022-08-28T14:44:57.117Z,102193.38
2022-08-28T14:47:24.915Z,102193.16
2022-08-28T14:49:51.618Z,102198.47
2022-08-28T14:52:19.449Z,102195.00
2022-08-28T14:54:45.968Z,102193.38
2022-08-28T14:57:12.496Z,102191.94
2022-08-28T14:59:54.356Z,102192.09
2022-08-28T15:02:20.780Z,102186.41
2022-08-28T15:04:47.157Z,102184.56
2022-08-28T15:07:13.743Z,102191.50
2022-08-28T15:09:42.584Z,102184.16
2022-08-28T15:12:09.547Z,102187.72
2022-08-28T15:14:36.096Z,102178.94
2022-08-28T15:17:03.395Z,102182.00
2022-08-28T15:19:30.084Z,102185.16
2022-08-28T15:21:57.289Z,102184.44
2022-08-28T15:24:30.877Z,102187.72
2022-08-28T15:26:59.598Z,102185.91
2022-08-28T15:29:27.958Z,102174.16
2022-08-28T15:31:54.443Z,102176.22
2022-08-28T15:34:24.043Z,102176.06
2022-08-28T15:36:55.125Z,102176.59
2022-08-28T15:39:45.296Z,102174.97
2022-08-28T15:42:28.205Z,102180.09
2022-08-28T15:47:24.939Z,102176.19
2022-08-28T15:49:59.524Z,102176.28
2022-08-28T15:52:25.959Z,102170.25
2022-08-28T15:54:54.572Z,102169.63
2022-08-28T15:57:23.045Z,102169.63
2022-08-28T15:59:50.936Z,102179.03
2022-08-28T16:02:22.811Z,102178.81
2022-08-28T16:04:49.450Z,102172.25
2022-08-28T16:07:16.775Z,102174.81
2022-08-28T16:09:43.195Z,102170.44
2022-08-28T16:12:09.647Z,102172.06
2022-08-28T16:14:36.258Z,102176.53
2022-08-28T16:17:47.116Z,102184.28
2022-08-28T16:19:54.785Z,102180.94
2022-08-28T16:22:21.191Z,102173.47
2022-08-28T16:24:47.639Z,102170.44
2022-08-28T16:27:15.739Z,102172.06
2022-08-28T16:29:43.628Z,102177.06
2022-08-28T16:32:11.802Z,102172.16
2022-08-28T16:34:39.000Z,102181.03
2022-08-28T16:37:06.038Z,102173.06
2022-08-28T16:39:34.623Z,102176.63
2022-08-28T16:42:01.084Z,102175.00
2022-08-28T16:44:27.804Z,102178.34
2022-08-28T16:46:55.581Z,102182.53
2022-08-28T16:49:22.689Z,102181.19
2022-08-28T16:51:49.457Z,102180.16
2022-08-28T16:54:18.136Z,102172.81
2022-08-28T16:56:45.996Z,102174.75
2022-08-28T16:59:12.732Z,102176.44
2022-08-28T17:01:40.867Z,102174.78
2022-08-28T17:04:09.094Z,102173.47
2022-08-28T17:06:35.526Z,102175.72
2022-08-28T17:09:01.946Z,102173.75
2022-08-28T17:11:28.695Z,102173.47
2022-08-28T17:13:55.828Z,102179.78
2022-08-28T17:16:23.717Z,102190.78
2022-08-28T17:18:52.457Z,102174.88
2022-08-28T17:21:38.922Z,102177.63
2022-08-28T17:24:05.723Z,102177.72
2022-08-28T17:26:32.498Z,102177.28
2022-08-28T17:28:58.895Z,102190.00
2022-08-28T17:31:25.493Z,102185.72
2022-08-28T17:33:52.074Z,102186.00
2022-08-28T17:36:32.539Z,102191.81
2022-08-28T17:39:02.037Z,102186.91
2022-08-28T17:41:31.569Z,102189.72
2022-08-28T17:44:00.167Z,102193.59
2022-08-28T17:46:27.697Z,102183.19
2022-08-28T17:48:56.085Z,102189.50
2022-08-28T17:51:42.607Z,102188.44
2022-08-28T17:54:13.086Z,102187.19
2022-08-28T17:56:40.204Z,102188.38
2022-08-28T17:59:06.666Z,102190.59
2022-08-28T18:01:33.178Z,102195.59
2022-08-28T18:03:59.696Z,102186.88
2022-08-28T18:06:26.250Z,102188.06
2022-08-28T18:08:52.636Z,102183.16
2022-08-28T18:11:19.542Z,102186.47
2022-08-28T18:13:46.939Z,102188.44
2022-08-28T18:16:13.805Z,102183.81
2022-08-28T18:18:41.486Z,102173.41
2022-08-28T18:21:11.204Z,102185.00
2022-08-28T18:23:39.617Z,102183.41
2022-08-28T18:26:07.204Z,102182.09
2022-08-28T18:28:33.876Z,102187.13
2022-08-28T18:31:00.923Z,102180.25
2022-08-28T18:33:27.547Z,102179.50
2022-08-28T18:36:16.831Z,102184.75
2022-08-28T18:38:53.832Z,102193.88
2022-08-28T18:41:21.723Z,102191.19
2022-08-28T18:43:57.446Z,102192.59
2022-08-28T18:46:37.022Z,102192.66
2022-08-28T18:49:10.566Z,102191.28
2022-08-28T18:51:44.607Z,102208.66
2022-08-28T18:54:13.969Z,102204.84
2022-08-28T18:56:48.651Z,102204.88
2022-08-28T18:59:17.603Z,102214.50
2022-08-28T19:02:04.286Z,102211.56
2022-08-28T19:04:30.827Z,102209.94
2022-08-28T19:07:19.099Z,102216.00
2022-08-28T19:09:45.483Z,102220.13
2022-08-28T19:12:23.791Z,102219.59
2022-08-28T19:15:29.133Z,102222.38
2022-08-28T19:17:56.168Z,102227.59
2022-08-28T19:20:26.519Z,102227.38
2022-08-28T19:22:52.947Z,102228.75
2022-08-28T19:25:28.598Z,102233.69
2022-08-28T19:27:59.318Z,102230.44
2022-08-28T19:30:27.991Z,102233.22
2022-08-28T19:32:54.963Z,102232.69
2022-08-28T19:35:51.713Z,102227.78
2022-08-28T19:38:22.737Z,102228.94
2022-08-28T19:40:56.543Z,102230.59
2022-08-28T19:43:42.570Z,102242.19
2022-08-28T19:46:22.177Z,102237.84
2022-08-28T19:48:50.572Z,102241.41
2022-08-28T19:51:24.109Z,102249.38
2022-08-28T19:54:10.940Z,102244.72
2022-08-28T19:56:41.842Z,102255.69
2022-08-28T19:59:09.028Z,102263.38
2022-08-28T20:01:38.697Z,102260.66
2022-08-28T20:04:16.732Z,102263.16
2022-08-28T20:06:45.135Z,102262.59
2022-08-28T20:09:16.176Z,102263.16
2022-08-28T20:11:50.290Z,102263.72
2022-08-28T20:14:20.444Z,102267.56
2022-08-28T20:16:58.117Z,102271.41
2022-08-28T20:19:24.667Z,102270.56
2022-08-28T20:21:53.664Z,102270.31
2022-08-28T20:24:24.071Z,102271.94
2022-08-28T20:26:55.644Z,102276.06
2022-08-28T20:29:39.610Z,102278.28
2022-08-28T20:32:06.145Z,102270.88
2022-08-28T20:34:35.680Z,102280.19
2022-08-28T20:37:16.887Z,102270.06
2022-08-28T20:39:43.446Z,102274.47
2022-08-28T20:42:35.886Z,102276.91
2022-08-28T20:45:18.491Z,102288.44
2022-08-28T20:47:55.021Z,102278.31
2022-08-28T20:50:26.674Z,102286.78
2022-08-28T20:53:05.433Z,102290.38
2022-08-28T20:55:59.741Z,102292.25
2022-08-28T20:58:36.930Z,102295.00
2022-08-28T21:01:23.452Z,102293.66
2022-08-28T21:03:49.930Z,102301.56
2022-08-28T21:06:16.372Z,102298.28
2022-08-28T21:08:42.956Z,102309.25
2022-08-28T21:11:13.459Z,102312.53
2022-08-28T21:13:40.957Z,102308.69
2022-08-28T21:16:09.028Z,102316.38
2022-08-28T21:18:36.202Z,102317.75
2022-08-28T21:21:14.981Z,102316.38
2022-08-28T21:23:42.850Z,102315.81
2022-08-28T21:26:13.352Z,102313.38
2022-08-28T21:28:52.253Z,102316.38
2022-08-28T21:31:20.753Z,102318.28
2022-08-28T21:33:47.241Z,102319.66
2022-08-28T21:36:16.876Z,102321.31
2022-08-28T21:38:44.058Z,102324.31
2022-08-28T21:41:13.328Z,102330.06
2022-08-28T21:43:42.969Z,102335.25
2022-08-28T21:46:10.868Z,102338.28
2022-08-28T21:48:37.816Z,102326.22
2022-08-28T21:51:13.138Z,102326.47
2022-08-28T21:53:40.798Z,102323.50
2022-08-28T21:56:08.568Z,102322.41
2022-08-28T21:58:49.552Z,102319.13
2022-08-28T22:01:35.798Z,102319.38
2022-08-28T22:04:05.237Z,102318.84
2022-08-28T22:06:59.739Z,102324.06
2022-08-28T22:09:29.043Z,102329.53
2022-08-28T22:11:55.590Z,102333.06
2022-08-28T22:14:22.744Z,102330.34
2022-08-28T22:16:49.434Z,102326.78
2022-08-28T22:19:24.127Z,102331.41
2022-08-28T22:22:18.323Z,102329.50
2022-08-28T22:24:45.027Z,102327.84
2022-08-28T22:27:13.485Z,102339.03
2022-08-28T22:29:44.974Z,102335.72
2022-08-28T22:32:11.567Z,102337.09
2022-08-28T22:34:42.315Z,102336.00
2022-08-28T22:37:11.455Z,102332.16
2022-08-28T22:39:41.480Z,102332.09
2022-08-28T22:42:17.221Z,102328.25
2022-08-28T22:44:53.699Z,102329.34
2022-08-28T22:47:22.199Z,102329.59
2022-08-28T22:50:13.742Z,102327.66
2022-08-28T22:52:43.198Z,102326.00
2022-08-28T22:55:12.321Z,102324.91
2022-08-28T22:57:39.440Z,102327.59
2022-08-28T23:00:43.873Z,102324.84
2022-08-28T23:03:10.524Z,102321.84
2022-08-28T23:05:51.480Z,102322.09
2022-08-28T23:08:18.712Z,102317.16
2022-08-28T23:10:58.392Z,102314.38
2022-08-28T23:13:35.749Z,102312.44
2022-08-28T23:16:02.853Z,102320.88
2022-08-28T23:18:46.304Z,102311.00
2022-08-28T23:21:21.271Z,102312.88
2022-08-28T23:23:53.662Z,102308.22
2022-08-28T23:26:20.654Z,102314.44
2022-08-28T23:28:53.182Z,102309.78
2022-08-28T23:31:33.051Z,102314.41
2022-08-28T23:33:59.668Z,102315.72
2022-08-28T23:36:27.236Z,102310.78
2022-08-28T23:38:53.716Z,102311.84
2022-08-28T23:41:33.719Z,102304.97
2022-08-28T23:44:03.134Z,102307.41
2022-08-28T23:46:33.591Z,102297.00
2022-08-28T23:49:00.333Z,102293.69
2022-08-28T23:51:31.159Z,102295.88
2022-08-28T23:53:59.621Z,102299.69
2022-08-28T23:56:28.112Z,102294.22
2022-08-28T23:58:57.934Z,102292.56
